Time;durP1;ratioP1;P1;durP2;ratioP2;P2;SDS_P1;SDS_P2;PMS_P1;PMS_P2;Temp;Humidity;BMP_temperature;BMP_pressure;BME280_temperature;BME280_humidity;BME280_pressure;Samples;Min_cycle;Max_cycle;Signal;HPM_P1;HPM_P2
2021/05/25 00:00:08;;;;;;;10.57;5.85;;;10.60;99.90;;;;;;5039209;28;20060;-79
2021/05/25 00:02:34;;;;;;;8.23;5.78;;;10.60;99.90;;;;;;5034579;28;20025;-79
2021/05/25 00:04:59;;;;;;;13.00;6.05;;;10.60;99.90;;;;;;5049381;28;20032;-79
2021/05/25 00:07:25;;;;;;;18.80;6.38;;;10.60;99.90;;;;;;5034429;28;20140;-79
2021/05/25 00:09:51;;;;;;;9.23;4.93;;;10.60;99.90;;;;;;5034482;28;20021;-79
2021/05/25 00:12:16;;;;;;;8.40;5.35;;;10.60;99.90;;;;;;5034496;28;20030;-79
2021/05/25 00:14:42;;;;;;;10.13;5.40;;;10.60;99.90;;;;;;5033968;28;20021;-79
2021/05/25 00:17:08;;;;;;;14.55;6.05;;;10.60;99.90;;;;;;5033037;28;20036;-79
2021/05/25 00:19:34;;;;;;;8.70;5.50;;;10.60;99.90;;;;;;5034209;28;20510;-79
2021/05/25 00:21:59;;;;;;;8.93;5.40;;;10.60;99.90;;;;;;5032938;28;20122;-79
2021/05/25 00:24:25;;;;;;;13.18;5.88;;;10.60;99.90;;;;;;5031961;28;20025;-79
2021/05/25 00:26:50;;;;;;;8.68;5.72;;;10.60;99.90;;;;;;5034210;28;20105;-79
2021/05/25 00:29:16;;;;;;;10.73;5.35;;;10.60;99.90;;;;;;5034095;28;20042;-79
2021/05/25 00:31:42;;;;;;;9.95;6.38;;;10.60;99.90;;;;;;5032784;28;20033;-79
2021/05/25 00:34:07;;;;;;;9.18;5.82;;;10.70;99.90;;;;;;5032321;28;20014;-79
2021/05/25 00:36:36;;;;;;;12.00;6.90;;;10.60;99.90;;;;;;5033915;28;20101;-79
2021/05/25 00:39:04;;;;;;;13.15;6.40;;;10.60;99.90;;;;;;5033965;28;20029;-79
2021/05/25 00:41:29;;;;;;;8.27;5.85;;;10.60;99.90;;;;;;5049321;28;20091;-79
2021/05/25 00:43:55;;;;;;;10.60;7.07;;;10.60;99.90;;;;;;5033423;28;20021;-79
2021/05/25 00:46:20;;;;;;;11.00;6.78;;;10.60;99.90;;;;;;5032479;28;20029;-79
2021/05/25 00:48:46;;;;;;;14.13;6.63;;;10.50;99.90;;;;;;5033421;28;20489;-79
2021/05/25 00:51:12;;;;;;;13.82;6.90;;;10.60;99.90;;;;;;5033657;28;20044;-79
2021/05/25 00:53:37;;;;;;;8.05;6.25;;;10.60;99.90;;;;;;5048760;28;20034;-79
2021/05/25 00:56:03;;;;;;;10.45;7.25;;;10.50;99.90;;;;;;5032190;28;20389;-79
2021/05/25 00:58:29;;;;;;;10.68;7.60;;;10.60;99.90;;;;;;5032214;28;20021;-79
2021/05/25 01:00:55;;;;;;;11.98;7.80;;;10.50;99.90;;;;;;5032233;28;20040;-79
2021/05/25 01:03:23;;;;;;;13.07;7.25;;;10.50;99.90;;;;;;5032064;28;20025;-79
2021/05/25 01:05:49;;;;;;;15.00;8.32;;;10.50;99.90;;;;;;5033057;28;20052;-79
2021/05/25 01:08:15;;;;;;;12.05;7.60;;;10.50;99.90;;;;;;5048914;28;20029;-79
2021/05/25 01:10:46;;;;;;;15.07;8.45;;;10.50;99.90;;;;;;5048106;28;20029;-79
2021/05/25 01:13:16;;;;;;;13.57;7.57;;;10.50;99.90;;;;;;5032964;28;20033;-79
2021/05/25 01:15:42;;;;;;;10.68;8.00;;;10.50;99.90;;;;;;5032957;28;20022;-79
2021/05/25 01:18:08;;;;;;;15.52;6.95;;;10.40;99.90;;;;;;5031528;28;20041;-79
2021/05/25 01:20:37;;;;;;;10.93;7.03;;;10.30;99.90;;;;;;5033036;28;20029;-79
2021/05/25 01:23:03;;;;;;;12.52;7.38;;;10.30;99.90;;;;;;5031841;28;20025;-79
2021/05/25 01:25:29;;;;;;;10.52;7.50;;;10.30;99.90;;;;;;5031529;28;20026;-79
2021/05/25 01:27:59;;;;;;;12.55;6.80;;;10.30;99.90;;;;;;5031762;28;20053;-79
2021/05/25 01:30:27;;;;;;;17.38;8.20;;;10.30;99.90;;;;;;5048399;28;20025;-79
2021/05/25 01:32:54;;;;;;;14.35;8.18;;;10.30;99.90;;;;;;5047654;28;20064;-79
2021/05/25 01:35:20;;;;;;;16.10;8.48;;;10.20;99.90;;;;;;5031385;28;20424;-79
2021/05/25 01:37:47;;;;;;;12.65;9.18;;;10.30;99.90;;;;;;5032939;28;20160;-79
2021/05/25 01:40:14;;;;;;;16.80;10.63;;;10.30;99.90;;;;;;5032831;28;20478;-79
2021/05/25 01:42:40;;;;;;;15.43;8.80;;;10.30;99.90;;;;;;5031214;28;20493;-79
2021/05/25 01:45:07;;;;;;;16.52;10.45;;;10.30;99.90;;;;;;5047717;28;20065;-79
2021/05/25 01:47:33;;;;;;;14.48;9.70;;;10.30;99.90;;;;;;5032357;28;20040;-79
2021/05/25 01:50:14;;;;;;;16.15;8.88;;;10.30;99.90;;;;;;5032441;28;20033;-79
2021/05/25 01:52:53;;;;;;;21.02;9.82;;;10.30;99.90;;;;;;5032394;28;20025;-79
2021/05/25 01:55:28;;;;;;;15.25;8.77;;;10.30;99.90;;;;;;5047796;28;20036;-78
2021/05/25 01:57:56;;;;;;;11.43;8.63;;;10.20;99.90;;;;;;5032297;28;20022;-79
2021/05/25 02:00:22;;;;;;;16.35;9.63;;;10.20;99.90;;;;;;5032379;28;20037;-79
2021/05/25 02:02:48;;;;;;;13.23;8.13;;;10.10;99.90;;;;;;5047132;28;20114;-79
2021/05/25 02:05:14;;;;;;;9.50;6.55;;;10.10;99.90;;;;;;5030855;28;20049;-79
2021/05/25 02:07:44;;;;;;;8.82;6.45;;;10.10;99.90;;;;;;5030997;28;20033;-79
2021/05/25 02:10:19;;;;;;;8.30;6.97;;;10.10;99.90;;;;;;5030951;28;20026;-78
2021/05/25 02:12:45;;;;;;;11.50;7.65;;;10.00;99.90;;;;;;5031063;28;20022;-79
2021/05/25 02:15:11;;;;;;;13.40;7.28;;;10.00;99.90;;;;;;5031659;28;20036;-79
2021/05/25 02:17:37;;;;;;;10.77;7.20;;;10.00;99.90;;;;;;5031109;28;20025;-79
2021/05/25 02:20:03;;;;;;;9.57;6.65;;;10.00;99.90;;;;;;5031830;28;20402;-79
2021/05/25 02:22:28;;;;;;;8.90;6.57;;;10.00;99.90;;;;;;5031880;28;20033;-79
2021/05/25 02:24:54;;;;;;;11.20;7.35;;;10.00;99.90;;;;;;5031733;28;20056;-79
2021/05/25 02:27:19;;;;;;;13.88;7.57;;;10.00;99.90;;;;;;5047220;28;20025;-78
2021/05/25 02:29:45;;;;;;;11.15;7.80;;;10.00;99.90;;;;;;5031782;28;20424;-78
2021/05/25 02:32:10;;;;;;;10.23;7.95;;;10.00;99.90;;;;;;5030465;28;20510;-78
2021/05/25 02:34:36;;;;;;;11.82;8.05;;;9.90;99.90;;;;;;5031494;28;20044;-79
2021/05/25 02:37:01;;;;;;;11.35;9.43;;;9.90;99.90;;;;;;5031889;28;20017;-78
2021/05/25 02:39:27;;;;;;;12.77;8.85;;;9.90;99.90;;;;;;5031585;28;20033;-78
2021/05/25 02:41:52;;;;;;;13.85;8.55;;;10.00;99.90;;;;;;5031901;28;20108;-79
2021/05/25 02:44:18;;;;;;;13.45;8.60;;;9.90;99.90;;;;;;5031412;28;20061;-78
2021/05/25 02:46:43;;;;;;;16.33;9.32;;;9.90;99.90;;;;;;5030463;28;20021;-78
2021/05/25 02:49:09;;;;;;;29.25;10.80;;;9.90;99.90;;;;;;5031452;28;20033;-78
2021/05/25 02:51:34;;;;;;;15.70;10.07;;;9.90;99.90;;;;;;5030593;28;20037;-78
2021/05/25 02:54:00;;;;;;;17.50;10.05;;;9.90;99.90;;;;;;5031577;28;20026;-79
2021/05/25 02:56:25;;;;;;;14.63;11.48;;;10.00;99.90;;;;;;5030370;28;20048;-78
2021/05/25 02:58:52;;;;;;;14.65;11.30;;;10.00;99.90;;;;;;5031432;28;20057;-78
2021/05/25 03:01:17;;;;;;;15.52;11.48;;;10.00;99.90;;;;;;5031696;28;20026;-78
2021/05/25 03:03:43;;;;;;;17.17;10.65;;;10.00;99.90;;;;;;5029975;28;20087;-78
2021/05/25 03:06:08;;;;;;;17.65;10.68;;;10.00;99.90;;;;;;5031548;28;20037;-78
2021/05/25 03:08:34;;;;;;;17.77;8.88;;;10.00;99.90;;;;;;5030007;28;20033;-78
2021/05/25 03:10:59;;;;;;;12.27;9.30;;;10.00;99.90;;;;;;5030291;28;20079;-78
2021/05/25 03:13:25;;;;;;;13.13;10.25;;;10.00;99.90;;;;;;5031594;28;20025;-78
2021/05/25 03:15:51;;;;;;;12.02;8.73;;;10.00;99.90;;;;;;5030065;28;20021;-78
2021/05/25 03:18:17;;;;;;;15.05;9.35;;;10.00;99.90;;;;;;5031263;28;20025;-78
2021/05/25 03:20:45;;;;;;;12.40;9.55;;;10.10;99.90;;;;;;5046844;28;20087;-79
2021/05/25 03:23:11;;;;;;;16.85;11.43;;;10.10;99.90;;;;;;5046844;28;20036;-78
2021/05/25 03:25:37;;;;;;;16.95;10.60;;;10.20;99.90;;;;;;5031209;28;20389;-78
2021/05/25 03:28:04;;;;;;;16.75;11.27;;;10.10;99.90;;;;;;5029895;28;20022;-78
2021/05/25 03:30:29;;;;;;;15.85;10.57;;;10.10;99.90;;;;;;5030223;28;20028;-78
2021/05/25 03:32:57;;;;;;;16.83;11.00;;;10.00;99.90;;;;;;5029818;28;20022;-78
2021/05/25 03:35:24;;;;;;;24.48;11.68;;;10.00;99.90;;;;;;5032050;28;20026;-78
2021/05/25 03:37:50;;;;;;;18.10;10.70;;;10.00;99.90;;;;;;5035123;28;20026;-78
2021/05/25 03:40:16;;;;;;;14.77;10.60;;;10.00;99.90;;;;;;5033600;28;20092;-78
2021/05/25 03:42:47;;;;;;;17.63;11.80;;;10.00;99.90;;;;;;5033741;28;20398;-78
2021/05/25 03:45:14;;;;;;;18.88;11.73;;;9.90;99.90;;;;;;5033425;28;20031;-79
2021/05/25 03:47:39;;;;;;;24.85;10.82;;;9.90;99.90;;;;;;5033428;28;20451;-79
2021/05/25 03:50:07;;;;;;;24.60;11.65;;;9.80;99.90;;;;;;5033621;28;20088;-79
2021/05/25 03:52:41;;;;;;;16.63;10.25;;;9.90;99.90;;;;;;5034824;28;20021;-79
2021/05/25 04:00:37;;;;;;;35.35;13.75;;;10.00;99.90;;;;;;5034797;28;20402;-79
2021/05/25 04:03:03;;;;;;;17.73;11.90;;;10.10;99.90;;;;;;5034348;28;20026;-79
2021/05/25 04:05:29;;;;;;;21.95;15.18;;;10.20;99.90;;;;;;5033100;28;20053;-79
2021/05/25 04:07:54;;;;;;;29.50;14.77;;;10.20;99.90;;;;;;5033232;28;20033;-79
2021/05/25 04:10:20;;;;;;;31.30;15.43;;;10.30;99.90;;;;;;5034215;28;20040;-79
2021/05/25 04:12:46;;;;;;;22.17;15.52;;;10.30;99.90;;;;;;5033282;28;20140;-79
2021/05/25 04:15:12;;;;;;;30.13;15.48;;;10.30;99.90;;;;;;5049547;28;20557;-79
2021/05/25 04:17:40;;;;;;;20.85;15.35;;;10.30;99.90;;;;;;5033095;28;20075;-79
2021/05/25 04:20:07;;;;;;;22.90;14.15;;;10.30;99.90;;;;;;5034252;28;20025;-79
2021/05/25 04:22:33;;;;;;;44.67;19.15;;;10.30;99.90;;;;;;5033010;28;20042;-79
2021/05/25 04:24:58;;;;;;;29.85;18.13;;;10.30;99.90;;;;;;5032807;28;20136;-79
2021/05/25 04:27:24;;;;;;;24.67;18.75;;;10.20;99.90;;;;;;5034182;28;20025;-79
2021/05/25 04:29:49;;;;;;;32.22;20.98;;;10.30;99.90;;;;;;5033970;28;20108;-79
2021/05/25 04:32:15;;;;;;;32.05;21.52;;;10.30;99.90;;;;;;5032848;28;20041;-79
2021/05/25 04:34:40;;;;;;;29.83;20.48;;;10.40;99.90;;;;;;5033730;28;20522;-79
2021/05/25 04:37:06;;;;;;;25.95;19.45;;;10.50;99.90;;;;;;5034006;28;20151;-79
2021/05/25 04:39:31;;;;;;;34.03;22.15;;;10.50;99.90;;;;;;5032302;28;20053;-79
2021/05/25 04:41:57;;;;;;;30.63;19.85;;;10.60;99.90;;;;;;5032727;28;20514;-79
2021/05/25 04:44:22;;;;;;;34.90;23.10;;;10.60;99.90;;;;;;5033768;28;20025;-79
2021/05/25 04:46:48;;;;;;;32.85;24.38;;;10.60;99.90;;;;;;5032339;28;20030;-79
2021/05/25 04:49:14;;;;;;;35.10;24.30;;;10.70;99.90;;;;;;5033238;28;20242;-79
2021/05/25 04:51:39;;;;;;;39.97;25.63;;;10.70;99.90;;;;;;5033844;28;20025;-80
2021/05/25 04:54:05;;;;;;;39.42;24.52;;;10.70;99.90;;;;;;5033607;28;20443;-79
2021/05/25 04:56:33;;;;;;;41.08;24.95;;;10.80;99.90;;;;;;5033723;28;20103;-79
2021/05/25 04:58:59;;;;;;;47.28;25.63;;;10.80;99.90;;;;;;5033359;28;20079;-79
2021/05/25 05:01:25;;;;;;;45.28;26.48;;;10.80;99.90;;;;;;5032277;28;20022;-79
2021/05/25 05:03:50;;;;;;;35.65;25.63;;;10.80;99.90;;;;;;5032904;28;20025;-79
2021/05/25 05:06:16;;;;;;;34.65;23.75;;;10.80;99.90;;;;;;5032209;28;20060;-79
2021/05/25 05:08:43;;;;;;;40.33;25.15;;;10.70;99.90;;;;;;5033357;28;20032;-79
2021/05/25 05:11:09;;;;;;;42.53;27.02;;;10.70;99.90;;;;;;5031922;28;20120;-79
2021/05/25 05:13:35;;;;;;;35.38;26.27;;;10.80;99.90;;;;;;5033053;28;20105;-79
2021/05/25 05:16:01;;;;;;;32.92;24.27;;;10.80;99.90;;;;;;5033045;28;20083;-79
2021/05/25 05:18:26;;;;;;;40.30;24.92;;;10.90;99.90;;;;;;5033085;28;20060;-79
2021/05/25 05:20:52;;;;;;;45.83;27.35;;;11.00;99.90;;;;;;5031920;28;20033;-80
2021/05/25 05:23:17;;;;;;;38.22;25.65;;;11.10;99.90;;;;;;5031926;28;20040;-79
2021/05/25 05:25:43;;;;;;;32.47;24.45;;;11.20;99.90;;;;;;5032872;28;20108;-79
2021/05/25 05:28:08;;;;;;;41.60;26.30;;;11.40;99.90;;;;;;5032726;28;20029;-79
2021/05/25 05:30:35;;;;;;;35.67;24.33;;;11.60;99.90;;;;;;5033044;28;20527;-79
2021/05/25 05:33:00;;;;;;;33.05;23.65;;;11.70;99.90;;;;;;5032452;28;20019;-79
2021/05/25 05:35:26;;;;;;;28.23;21.73;;;11.80;99.90;;;;;;5031491;28;20029;-79
2021/05/25 05:37:51;;;;;;;28.63;19.88;;;11.70;99.90;;;;;;5031664;28;20030;-78
2021/05/25 05:40:17;;;;;;;24.73;18.83;;;11.70;99.90;;;;;;5032567;28;20458;-78
2021/05/25 05:42:43;;;;;;;22.67;15.45;;;11.70;99.90;;;;;;5031555;28;20021;-79
2021/05/25 05:45:09;;;;;;;19.58;14.07;;;11.70;99.90;;;;;;5031162;28;20032;-79
2021/05/25 05:47:34;;;;;;;17.25;12.40;;;11.70;99.90;;;;;;5032589;28;20108;-78
2021/05/25 05:50:09;;;;;;;16.65;12.48;;;11.60;99.90;;;;;;5031272;28;20140;-79
2021/05/25 05:52:36;;;;;;;15.70;11.85;;;11.60;99.90;;;;;;5031465;28;20025;-79
2021/05/25 05:55:02;;;;;;;14.95;12.02;;;11.60;99.90;;;;;;5031006;28;20032;-79
2021/05/25 05:57:27;;;;;;;14.88;11.40;;;11.70;99.90;;;;;;5031982;28;20267;-79
2021/05/25 05:59:53;;;;;;;14.25;10.48;;;11.60;99.90;;;;;;5032333;28;20043;-79
2021/05/25 06:02:18;;;;;;;12.10;10.63;;;11.50;99.90;;;;;;5026053;28;20040;-78
2021/05/25 06:04:44;;;;;;;14.52;10.93;;;11.40;99.90;;;;;;5028850;28;20112;-78
2021/05/25 06:07:09;;;;;;;16.50;10.95;;;11.50;99.90;;;;;;5031785;28;20032;-79
2021/05/25 06:09:37;;;;;;;18.70;13.90;;;11.40;99.90;;;;;;5032100;28;20068;-78
2021/05/25 06:12:03;;;;;;;18.70;13.73;;;11.40;99.90;;;;;;5031986;28;20105;-78
2021/05/25 06:14:29;;;;;;;18.20;13.27;;;11.40;99.90;;;;;;5030646;28;20604;-79
2021/05/25 06:16:54;;;;;;;16.95;11.73;;;11.40;99.90;;;;;;5031512;28;20038;-79
2021/05/25 06:19:20;;;;;;;18.60;9.82;;;11.40;99.90;;;;;;5030493;28;20028;-78
2021/05/25 06:21:46;;;;;;;16.70;9.55;;;11.50;99.90;;;;;;5032039;28;20075;-78
2021/05/25 06:24:13;;;;;;;22.92;8.50;;;11.50;99.90;;;;;;5030542;28;20457;-78
2021/05/25 06:26:39;;;;;;;15.30;7.13;;;11.80;99.90;;;;;;5030328;28;20033;-78
2021/05/25 06:29:04;;;;;;;16.85;5.65;;;11.70;99.90;;;;;;5047061;28;20374;-78
2021/05/25 06:31:30;;;;;;;11.98;4.38;;;11.80;99.90;;;;;;5031680;28;20037;-78
2021/05/25 06:33:55;;;;;;;17.70;3.50;;;11.60;99.90;;;;;;5031357;28;20044;-78
2021/05/25 06:36:21;;;;;;;11.85;2.60;;;11.60;99.90;;;;;;5030529;28;20091;-78
2021/05/25 06:38:46;;;;;;;13.65;2.42;;;11.70;99.90;;;;;;5031923;28;20032;-78
2021/05/25 06:41:12;;;;;;;10.18;3.00;;;11.80;99.90;;;;;;5030406;28;20071;-77
2021/05/25 06:43:38;;;;;;;13.23;2.78;;;11.60;99.90;;;;;;5031462;28;20034;-78
2021/05/25 06:46:04;;;;;;;12.27;2.42;;;11.70;99.90;;;;;;5030339;28;20033;-78
2021/05/25 06:48:30;;;;;;;21.02;2.45;;;11.80;99.90;;;;;;5031239;28;20045;-78
2021/05/25 06:50:55;;;;;;;16.02;2.13;;;11.70;99.90;;;;;;5030544;28;20021;-78
2021/05/25 06:53:21;;;;;;;10.80;2.13;;;11.80;99.90;;;;;;5031621;28;20064;-78
2021/05/25 06:55:46;;;;;;;8.38;1.75;;;11.90;99.90;;;;;;5029704;28;20053;-78
2021/05/25 06:58:12;;;;;;;7.32;1.23;;;11.90;99.90;;;;;;5047005;28;20064;-78
2021/05/25 07:00:38;;;;;;;9.40;1.70;;;12.00;99.90;;;;;;5046901;28;20049;-78
2021/05/25 07:03:03;;;;;;;10.43;1.35;;;12.10;99.90;;;;;;5031403;28;20569;-78
2021/05/25 07:05:29;;;;;;;10.00;1.30;;;12.20;99.90;;;;;;5031349;28;20021;-78
2021/05/25 07:07:54;;;;;;;4.82;1.00;;;12.50;99.90;;;;;;5030154;28;20101;-78
2021/05/25 07:10:20;;;;;;;8.95;1.75;;;12.70;99.90;;;;;;5033578;28;20029;-78
2021/05/25 07:12:46;;;;;;;9.80;1.80;;;12.80;99.90;;;;;;5035629;28;20104;-78
2021/05/25 07:15:12;;;;;;;9.88;1.25;;;12.90;99.90;;;;;;5034703;28;20038;-78
2021/05/25 07:17:38;;;;;;;5.72;1.45;;;13.00;99.90;;;;;;5034224;28;20022;-78
2021/05/25 07:20:04;;;;;;;7.20;1.60;;;13.00;99.90;;;;;;5034852;28;20025;-78
2021/05/25 07:22:29;;;;;;;5.03;1.10;;;12.70;99.90;;;;;;5035423;28;20093;-78
2021/05/25 07:24:55;;;;;;;5.88;1.88;;;12.60;99.90;;;;;;5034691;28;20117;-78
2021/05/25 07:27:21;;;;;;;10.75;1.00;;;12.60;99.90;;;;;;5035306;28;20025;-78
2021/05/25 07:29:46;;;;;;;5.05;1.05;;;12.50;99.90;;;;;;5050566;28;20029;-78
2021/05/25 07:32:12;;;;;;;3.03;0.90;;;12.50;99.90;;;;;;5050614;28;20386;-78
2021/05/25 07:34:38;;;;;;;5.35;1.10;;;12.40;99.90;;;;;;5043254;28;20067;-78
2021/05/25 07:37:03;;;;;;;7.88;1.10;;;12.20;99.90;;;;;;5028914;28;20025;-77
2021/05/25 07:39:29;;;;;;;10.27;1.02;;;12.10;99.90;;;;;;5032352;28;20021;-78
2021/05/25 07:41:54;;;;;;;4.03;1.23;;;12.10;99.90;;;;;;5033747;28;20116;-78
2021/05/25 07:44:20;;;;;;;3.15;1.10;;;12.20;99.90;;;;;;5034325;28;20025;-78
2021/05/25 07:46:48;;;;;;;9.00;1.67;;;12.10;99.90;;;;;;5050173;28;20112;-78
2021/05/25 07:49:13;;;;;;;3.92;1.25;;;12.10;99.90;;;;;;5034629;28;20041;-78
2021/05/25 07:51:39;;;;;;;11.20;2.20;;;11.90;99.90;;;;;;5034943;28;20025;-78
2021/05/25 07:54:05;;;;;;;9.27;1.50;;;11.70;99.90;;;;;;5032935;28;20033;-78
2021/05/25 07:56:30;;;;;;;3.50;1.02;;;11.60;99.90;;;;;;5034694;28;20052;-78
2021/05/25 07:58:56;;;;;;;5.15;0.80;;;11.70;99.90;;;;;;5034861;28;20033;-77
2021/05/25 08:01:21;;;;;;;8.20;1.10;;;11.60;99.90;;;;;;5031653;28;20033;-77
2021/05/25 08:03:47;;;;;;;6.22;1.30;;;11.80;99.90;;;;;;5032391;28;20124;-78
2021/05/25 08:06:13;;;;;;;10.40;2.92;;;11.90;99.90;;;;;;5034277;28;20021;-77
2021/05/25 08:08:38;;;;;;;7.10;1.15;;;12.00;99.90;;;;;;5033197;28;20117;-77
2021/05/25 08:11:08;;;;;;;4.28;1.00;;;12.10;99.90;;;;;;5034679;28;20025;-78
2021/05/25 08:13:34;;;;;;;6.72;1.10;;;12.20;99.90;;;;;;5034475;28;20026;-77
2021/05/25 08:16:00;;;;;;;4.32;0.77;;;12.30;99.90;;;;;;5033371;28;20067;-77
2021/05/25 08:21:09;;;;;;;;;;;12.40;99.90;;;;;;5034631;28;20120;-77
2021/05/25 08:23:35;;;;;;;2.58;0.65;;;12.50;99.90;;;;;;5034249;28;20008;-77
2021/05/25 08:26:04;;;;;;;1.63;0.88;;;12.20;99.90;;;;;;5028702;28;20482;-79
2021/05/25 08:28:29;;;;;;;2.65;0.80;;;12.20;99.90;;;;;;5028636;28;20037;-78
2021/05/25 08:30:55;;;;;;;1.75;0.60;;;12.10;99.90;;;;;;5034191;28;20025;-78
2021/05/25 08:33:21;;;;;;;3.20;1.00;;;12.10;99.90;;;;;;5049339;28;20029;-78
2021/05/25 08:35:47;;;;;;;7.60;0.80;;;12.20;99.90;;;;;;5033487;28;20024;-78
2021/05/25 08:38:15;;;;;;;6.20;1.08;;;12.20;99.90;;;;;;5033683;28;20037;-78
2021/05/25 08:40:42;;;;;;;2.90;0.70;;;12.20;99.90;;;;;;5041758;28;20037;-79
2021/05/25 08:43:09;;;;;;;8.73;1.00;;;12.20;99.90;;;;;;5029577;28;20156;-79
2021/05/25 08:45:34;;;;;;;3.70;0.73;;;12.20;99.90;;;;;;5029419;28;20095;-80
2021/05/25 08:48:00;;;;;;;5.72;0.77;;;12.10;99.90;;;;;;5028879;28;20498;-79
2021/05/25 08:50:28;;;;;;;7.03;0.75;;;12.10;99.90;;;;;;5029540;28;20025;-79
2021/05/25 08:52:57;;;;;;;4.18;0.98;;;12.00;99.90;;;;;;5029602;28;20026;-78
2021/05/25 08:55:23;;;;;;;2.85;0.88;;;11.90;99.90;;;;;;5028138;28;20052;-79
2021/05/25 08:57:48;;;;;;;4.75;0.75;;;11.80;99.90;;;;;;5025648;28;20040;-78
2021/05/25 09:00:15;;;;;;;3.42;0.90;;;11.70;99.90;;;;;;5029091;28;20029;-78
2021/05/25 09:02:41;;;;;;;2.72;0.70;;;11.60;99.90;;;;;;5030172;28;20044;-78
2021/05/25 09:05:12;;;;;;;3.75;1.08;;;11.50;99.90;;;;;;5028460;28;20029;-78
2021/05/25 09:08:10;;;;;;;2.15;0.77;;;11.50;99.90;;;;;;5029979;28;20025;-78
2021/05/25 09:10:39;;;;;;;5.70;0.88;;;11.60;99.90;;;;;;5007644;28;20490;-79
2021/05/25 09:13:12;;;;;;;2.75;1.05;;;11.80;99.90;;;;;;5030362;28;20510;-79
2021/05/25 09:15:51;;;;;;;4.50;0.98;;;11.90;99.90;;;;;;5028836;28;20091;-78
2021/05/25 09:18:29;;;;;;;1.05;1.00;;;11.90;99.90;;;;;;5025981;28;20509;-78
2021/05/25 09:20:55;;;;;;;1.95;0.63;;;12.10;99.90;;;;;;5030008;28;20045;-78
2021/05/25 09:23:34;;;;;;;2.40;1.08;;;12.20;99.90;;;;;;5029980;28;20164;-78
2021/05/25 09:26:11;;;;;;;8.50;0.90;;;12.20;99.90;;;;;;5027772;28;20037;-77
2021/05/25 09:29:02;;;;;;;2.45;1.05;;;12.20;99.90;;;;;;5029334;28;20033;-78
2021/05/25 09:31:45;;;;;;;5.85;1.10;;;12.00;99.90;;;;;;5029513;28;20521;-78
2021/05/25 09:34:22;;;;;;;1.10;0.70;;;12.00;99.90;;;;;;5029439;28;20022;-78
2021/05/25 09:37:09;;;;;;;3.97;1.23;;;11.80;99.90;;;;;;5029304;28;20075;-78
2021/05/25 09:39:41;;;;;;;2.05;0.90;;;11.50;99.90;;;;;;5028299;28;20031;-78
2021/05/25 09:42:08;;;;;;;2.67;1.33;;;11.60;99.90;;;;;;5028148;28;20072;-78
2021/05/25 09:44:35;;;;;;;4.03;0.85;;;11.70;99.90;;;;;;5027855;28;20083;-78
2021/05/25 09:47:02;;;;;;;0.82;0.82;;;11.70;99.90;;;;;;5027837;28;20060;-78
2021/05/25 09:49:31;;;;;;;6.80;1.00;;;11.70;99.90;;;;;;5028055;28;20524;-78
2021/05/25 09:52:04;;;;;;;3.42;0.90;;;11.80;99.90;;;;;;5029427;28;20033;-78
2021/05/25 09:54:31;;;;;;;4.05;1.30;;;11.80;99.90;;;;;;5027286;28;20029;-78
2021/05/25 09:57:05;;;;;;;5.20;1.00;;;12.00;99.90;;;;;;5027722;28;20490;-78
2021/05/25 09:59:35;;;;;;;2.85;1.25;;;12.20;99.90;;;;;;5027992;28;20560;-78
2021/05/25 10:02:17;;;;;;;2.20;1.40;;;12.00;99.90;;;;;;5029307;28;20030;-78
2021/05/25 10:04:59;;;;;;;13.20;1.90;;;11.90;99.90;;;;;;5027939;28;20060;-78
2021/05/25 10:07:27;;;;;;;2.47;1.17;;;11.70;99.90;;;;;;5029102;28;20111;-78
2021/05/25 10:09:55;;;;;;;2.95;1.30;;;11.30;99.90;;;;;;5029000;28;20033;-78
2021/05/25 10:12:22;;;;;;;5.00;1.30;;;11.20;99.90;;;;;;5029372;28;20018;-77
2021/05/25 10:14:47;;;;;;;1.65;1.15;;;11.10;99.90;;;;;;5028729;28;20100;-77
2021/05/25 10:17:29;;;;;;;5.65;1.08;;;11.00;99.90;;;;;;5028677;28;20108;-79
2021/05/25 10:19:55;;;;;;;3.17;1.48;;;11.10;99.90;;;;;;5019542;28;20064;-77
2021/05/25 10:22:22;;;;;;;3.05;1.35;;;11.10;99.90;;;;;;5027939;28;20068;-78
2021/05/25 10:24:49;;;;;;;3.50;1.10;;;11.20;99.90;;;;;;5027652;28;20029;-77
2021/05/25 10:27:15;;;;;;;4.38;1.35;;;11.40;99.90;;;;;;5028894;28;20025;-77
2021/05/25 10:29:40;;;;;;;1.85;1.27;;;11.70;99.90;;;;;;5028818;28;20037;-78
2021/05/25 10:32:06;;;;;;;3.72;1.50;;;11.80;99.90;;;;;;5029084;28;20021;-78
2021/05/25 10:34:33;;;;;;;13.23;1.73;;;12.00;99.90;;;;;;5027376;28;20032;-78
2021/05/25 10:37:02;;;;;;;3.70;1.45;;;12.00;99.90;;;;;;5028581;28;20017;-79
2021/05/25 10:39:34;;;;;;;2.28;1.15;;;12.30;99.90;;;;;;5028551;28;20096;-78
2021/05/25 10:42:21;;;;;;;3.03;1.05;;;12.40;99.90;;;;;;5028827;28;20045;-79
2021/05/25 10:45:01;;;;;;;0.90;0.75;;;12.10;99.90;;;;;;5021479;28;20103;-79
2021/05/25 10:47:36;;;;;;;3.05;0.90;;;11.80;99.90;;;;;;5026498;28;20132;-79
2021/05/25 10:50:25;;;;;;;2.35;1.13;;;11.70;99.90;;;;;;5027036;28;20064;-78
2021/05/25 10:52:54;;;;;;;3.67;1.08;;;12.00;99.90;;;;;;5028596;28;20025;-79
2021/05/25 10:55:44;;;;;;;3.42;1.17;;;12.70;99.90;;;;;;5027040;28;20087;-79
2021/05/25 10:58:29;;;;;;;1.27;0.80;;;12.90;99.90;;;;;;5027247;28;20052;-79
2021/05/25 11:01:00;;;;;;;2.00;0.65;;;13.50;99.90;;;;;;5021045;28;20521;-79
2021/05/25 11:03:27;;;;;;;1.60;0.80;;;13.40;99.90;;;;;;5027770;28;20044;-79
2021/05/25 11:05:53;;;;;;;8.48;2.17;;;13.10;99.90;;;;;;5027879;28;20033;-79
2021/05/25 11:08:19;;;;;;;2.53;1.00;;;12.90;99.90;;;;;;5026725;28;20123;-80
2021/05/25 11:10:57;;;;;;;4.68;2.10;;;12.70;99.90;;;;;;5026817;28;20029;-79
2021/05/25 11:13:31;;;;;;;3.60;1.10;;;12.80;99.90;;;;;;5028461;28;20478;-79
2021/05/25 11:26:59;;;;;;;4.73;1.10;;;13.50;99.90;;;;;;5032788;28;20049;-79
2021/05/25 11:29:27;;;;;;;4.22;1.23;;;13.40;99.90;;;;;;5027900;28;20776;-79
2021/05/25 11:31:57;;;;;;;2.75;1.10;;;13.20;99.90;;;;;;5026832;28;20033;-78
2021/05/25 11:34:24;;;;;;;5.20;1.60;;;13.20;99.90;;;;;;5027711;28;20024;-78
2021/05/25 11:36:56;;;;;;;1.20;0.88;;;12.90;99.90;;;;;;5026732;28;20152;-78
2021/05/25 11:39:23;;;;;;;3.10;1.00;;;12.80;99.90;;;;;;5026200;28;20038;-79
2021/05/25 11:41:48;;;;;;;2.70;1.10;;;12.70;99.90;;;;;;5027773;28;20482;-78
2021/05/25 11:44:17;;;;;;;2.88;1.20;;;12.50;99.90;;;;;;5026579;28;20043;-79
2021/05/25 11:46:51;;;;;;;4.00;1.50;;;12.30;99.90;;;;;;5027846;28;20022;-79
2021/05/25 11:49:18;;;;;;;7.53;1.05;;;12.20;99.90;;;;;;5027478;28;20482;-79
2021/05/25 11:51:45;;;;;;;6.07;1.83;;;12.10;99.90;;;;;;5027513;28;20109;-78
2021/05/25 11:54:14;;;;;;;8.68;1.13;;;11.90;99.90;;;;;;5026354;28;20033;-78
2021/05/25 11:56:49;;;;;;;12.82;2.47;;;11.80;99.90;;;;;;5028828;28;20060;-78
2021/05/25 11:59:19;;;;;;;3.25;1.30;;;11.80;99.90;;;;;;5031390;28;20433;-77
2021/05/25 12:01:50;;;;;;;3.38;1.13;;;11.90;99.90;;;;;;5031145;28;20060;-77
2021/05/25 12:04:18;;;;;;;5.45;1.75;;;12.20;99.90;;;;;;5030939;28;20023;-77
2021/05/25 12:07:05;;;;;;;3.63;1.17;;;12.20;99.90;;;;;;5030032;28;20120;-78
2021/05/25 12:09:31;;;;;;;1.70;1.30;;;12.00;99.90;;;;;;5031249;28;20044;-78
2021/05/25 12:12:00;;;;;;;3.58;1.55;;;12.00;99.90;;;;;;5029674;28;20030;-78
2021/05/25 12:14:32;;;;;;;6.47;1.77;;;12.20;99.90;;;;;;5029529;28;20061;-78
2021/05/25 12:16:59;;;;;;;5.50;1.35;;;12.10;99.90;;;;;;5031359;28;20031;-78
2021/05/25 12:19:26;;;;;;;6.13;1.73;;;12.20;99.90;;;;;;5031030;28;20033;-78
2021/05/25 12:22:06;;;;;;;5.72;2.08;;;12.30;99.90;;;;;;5030906;28;20108;-78
2021/05/25 12:24:35;;;;;;;5.82;1.60;;;12.10;99.90;;;;;;5029720;28;20053;-79
2021/05/25 12:27:00;;;;;;;2.60;1.83;;;11.90;99.90;;;;;;5030177;28;20457;-79
2021/05/25 12:29:27;;;;;;;4.45;1.92;;;11.90;99.90;;;;;;5029446;28;20056;-80
2021/05/25 12:31:54;;;;;;;8.02;1.75;;;12.10;99.90;;;;;;5031259;28;20389;-79
2021/05/25 12:34:25;;;;;;;5.95;1.80;;;12.30;99.90;;;;;;5030704;28;20063;-78
2021/05/25 12:36:51;;;;;;;7.35;1.65;;;12.10;99.90;;;;;;5029891;28;20025;-78
2021/05/25 12:39:29;;;;;;;10.02;1.85;;;12.00;99.90;;;;;;5011727;28;20029;-78
2021/05/25 12:41:55;;;;;;;4.60;1.70;;;12.20;99.90;;;;;;5025245;28;20533;-77
2021/05/25 12:44:31;;;;;;;10.68;2.05;;;12.20;99.90;;;;;;5028577;28;20040;-77
2021/05/25 12:47:14;;;;;;;3.80;1.48;;;12.10;99.90;;;;;;5030596;28;20021;-78
2021/05/25 12:49:43;;;;;;;3.60;1.90;;;12.00;99.90;;;;;;5030380;28;21258;-78
2021/05/25 12:52:20;;;;;;;13.30;1.88;;;12.00;99.90;;;;;;5030028;28;20029;-79
2021/05/25 12:55:03;;;;;;;3.05;1.08;;;12.00;99.90;;;;;;5028781;28;20124;-78
2021/05/25 12:57:52;;;;;;;4.20;1.00;;;12.10;99.90;;;;;;5030189;28;20232;-79
2021/05/25 13:00:43;;;;;;;17.45;2.45;;;12.50;99.90;;;;;;5030217;28;20036;-79
2021/05/25 13:03:29;;;;;;;7.88;2.03;;;13.30;99.90;;;;;;5032362;28;20021;-78